sensor_id;sensor_type;location;lat;lon;timestamp;pressure;altitude;pressure_sealevel;temperature;humidity
61786;BME280;47692;53.714;11.372;2023-05-09T00:00:44;101725.28;;;9.58;67.00
61786;BME280;47692;53.714;11.372;2023-05-09T00:03:10;101720.09;;;9.57;67.05
61786;BME280;47692;53.714;11.372;2023-05-09T00:05:37;101714.00;;;9.58;67.41
61786;BME280;47692;53.714;11.372;2023-05-09T00:08:02;101719.22;;;9.58;67.49
61786;BME280;47692;53.714;11.372;2023-05-09T00:10:27;101719.25;;;9.56;67.77
61786;BME280;47692;53.714;11.372;2023-05-09T00:12:53;101714.03;;;9.51;67.72
61786;BME280;47692;53.714;11.372;2023-05-09T00:15:18;101704.47;;;9.46;67.61
61786;BME280;47692;53.714;11.372;2023-05-09T00:17:44;101702.75;;;9.42;68.14
61786;BME280;47692;53.714;11.372;2023-05-09T00:20:10;101708.81;;;9.45;68.35
61786;BME280;47692;53.714;11.372;2023-05-09T00:22:37;101701.03;;;9.44;68.26
61786;BME280;47692;53.714;11.372;2023-05-09T00:25:05;101694.06;;;9.36;68.82
61786;BME280;47692;53.714;11.372;2023-05-09T00:27:30;101695.84;;;9.31;68.92
61786;BME280;47692;53.714;11.372;2023-05-09T00:29:56;101697.53;;;9.32;69.07
61786;BME280;47692;53.714;11.372;2023-05-09T00:32:21;101687.13;;;9.26;69.07
61786;BME280;47692;53.714;11.372;2023-05-09T00:34:47;101692.34;;;9.25;69.10
61786;BME280;47692;53.714;11.372;2023-05-09T00:37:12;101687.16;;;9.20;69.76
61786;BME280;47692;53.714;11.372;2023-05-09T00:39:37;101682.81;;;9.19;69.96
61786;BME280;47692;53.714;11.372;2023-05-09T00:42:03;101682.81;;;9.16;69.96
61786;BME280;47692;53.714;11.372;2023-05-09T00:44:28;101672.38;;;9.11;70.18
61786;BME280;47692;53.714;11.372;2023-05-09T00:46:54;101675.00;;;9.05;70.70
61786;BME280;47692;53.714;11.372;2023-05-09T00:49:19;101667.22;;;9.00;70.60
61786;BME280;47692;53.714;11.372;2023-05-09T00:51:45;101668.94;;;9.00;71.06
61786;BME280;47692;53.714;11.372;2023-05-09T00:54:11;101660.25;;;8.96;71.69
61786;BME280;47692;53.714;11.372;2023-05-09T00:56:37;101654.19;;;8.94;71.59
61786;BME280;47692;53.714;11.372;2023-05-09T00:59:03;101644.63;;;8.88;71.87
61786;BME280;47692;53.714;11.372;2023-05-09T01:01:28;101648.97;;;8.85;72.38
61786;BME280;47692;53.714;11.372;2023-05-09T01:03:54;101652.47;;;8.81;72.55
61786;BME280;47692;53.714;11.372;2023-05-09T01:06:43;101648.97;;;8.79;72.75
61786;BME280;47692;53.714;11.372;2023-05-09T01:10:01;101642.91;;;8.75;72.80
61786;BME280;47692;53.714;11.372;2023-05-09T01:12:12;101642.06;;;8.71;73.32
61786;BME280;47692;53.714;11.372;2023-05-09T01:15:05;101638.59;;;8.69;73.43
61786;BME280;47692;53.714;11.372;2023-05-09T01:17:48;101636.84;;;8.65;73.57
61786;BME280;47692;53.714;11.372;2023-05-09T01:26:09;101633.38;;;8.57;73.88
61786;BME280;47692;53.714;11.372;2023-05-09T01:31:43;101634.25;;;8.54;74.59
61786;BME280;47692;53.714;11.372;2023-05-09T01:34:10;101632.50;;;8.53;74.64
61786;BME280;47692;53.714;11.372;2023-05-09T01:36:36;101634.22;;;8.51;74.77
61786;BME280;47692;53.714;11.372;2023-05-09T01:39:05;101633.34;;;8.54;75.00
61786;BME280;47692;53.714;11.372;2023-05-09T01:41:33;101637.69;;;8.55;74.87
61786;BME280;47692;53.714;11.372;2023-05-09T01:44:02;101627.31;;;8.52;74.80
61786;BME280;47692;53.714;11.372;2023-05-09T01:46:29;101635.09;;;8.49;75.19
61786;BME280;47692;53.714;11.372;2023-05-09T01:48:55;101635.06;;;8.46;75.26
61786;BME280;47692;53.714;11.372;2023-05-09T01:51:21;101625.56;;;8.49;75.49
61786;BME280;47692;53.714;11.372;2023-05-09T01:53:48;101620.34;;;8.48;75.27
61786;BME280;47692;53.714;11.372;2023-05-09T01:56:16;101625.56;;;8.51;75.29
61786;BME280;47692;53.714;11.372;2023-05-09T01:58:43;101624.69;;;8.52;75.56
61786;BME280;47692;53.714;11.372;2023-05-09T02:01:12;101617.75;;;8.48;75.37
61786;BME280;47692;53.714;11.372;2023-05-09T02:03:39;101617.72;;;8.45;75.72
61786;BME280;47692;53.714;11.372;2023-05-09T02:06:05;101609.06;;;8.39;75.86
61786;BME280;47692;53.714;11.372;2023-05-09T02:08:31;101612.53;;;8.37;75.90
61786;BME280;47692;53.714;11.372;2023-05-09T02:10:56;101608.19;;;8.34;76.20
61786;BME280;47692;53.714;11.372;2023-05-09T02:13:22;101599.50;;;8.32;76.32
61786;BME280;47692;53.714;11.372;2023-05-09T02:15:48;101600.38;;;8.28;76.57
61786;BME280;47692;53.714;11.372;2023-05-09T02:18:13;101601.25;;;8.25;76.55
61786;BME280;47692;53.714;11.372;2023-05-09T02:20:39;101593.41;;;8.24;76.91
61786;BME280;47692;53.714;11.372;2023-05-09T02:23:04;101588.22;;;8.21;76.84
61786;BME280;47692;53.714;11.372;2023-05-09T02:25:30;101591.69;;;8.17;77.40
61786;BME280;47692;53.714;11.372;2023-05-09T02:27:57;101583.88;;;8.14;77.57
61786;BME280;47692;53.714;11.372;2023-05-09T02:30:25;101574.34;;;8.09;77.55
61786;BME280;47692;53.714;11.372;2023-05-09T02:32:54;101588.19;;;8.05;77.46
61786;BME280;47692;53.714;11.372;2023-05-09T02:35:21;101589.94;;;8.09;77.61
61786;BME280;47692;53.714;11.372;2023-05-09T02:37:47;101576.06;;;8.04;77.61
61786;BME280;47692;53.714;11.372;2023-05-09T02:40:13;101579.53;;;8.06;77.91
61786;BME280;47692;53.714;11.372;2023-05-09T02:42:38;101585.59;;;8.07;77.68
61786;BME280;47692;53.714;11.372;2023-05-09T02:45:04;101582.97;;;8.05;77.45
61786;BME280;47692;53.714;11.372;2023-05-09T02:47:31;101574.31;;;8.00;77.41
61786;BME280;47692;53.714;11.372;2023-05-09T02:49:56;101580.38;;;7.96;77.68
61786;BME280;47692;53.714;11.372;2023-05-09T02:52:22;101577.78;;;7.95;78.01
61786;BME280;47692;53.714;11.372;2023-05-09T02:54:47;101580.38;;;7.91;78.18
61786;BME280;47692;53.714;11.372;2023-05-09T02:57:12;101576.88;;;7.85;78.62
61786;BME280;47692;53.714;11.372;2023-05-09T02:59:38;101579.50;;;7.85;78.94
61786;BME280;47692;53.714;11.372;2023-05-09T03:02:03;101581.19;;;7.76;78.96
61786;BME280;47692;53.714;11.372;2023-05-09T03:04:29;101577.72;;;7.78;79.08
61786;BME280;47692;53.714;11.372;2023-05-09T03:06:54;101571.69;;;7.77;79.35
61786;BME280;47692;53.714;11.372;2023-05-09T03:09:20;101574.28;;;7.77;79.35
61786;BME280;47692;53.714;11.372;2023-05-09T03:11:45;101569.06;;;7.72;78.81
61786;BME280;47692;53.714;11.372;2023-05-09T03:14:11;101560.38;;;7.67;79.21
61786;BME280;47692;53.714;11.372;2023-05-09T03:16:37;101563.84;;;7.66;79.08
61786;BME280;47692;53.714;11.372;2023-05-09T03:19:02;101560.38;;;7.61;79.35
61786;BME280;47692;53.714;11.372;2023-05-09T03:21:28;101553.44;;;7.60;79.81
61786;BME280;47692;53.714;11.372;2023-05-09T03:23:53;101546.50;;;7.56;79.97
61786;BME280;47692;53.714;11.372;2023-05-09T03:26:18;101539.56;;;7.55;79.92
61786;BME280;47692;53.714;11.372;2023-05-09T03:28:44;101532.59;;;7.51;80.03
61786;BME280;47692;53.714;11.372;2023-05-09T03:31:10;101538.69;;;7.50;80.38
61786;BME280;47692;53.714;11.372;2023-05-09T03:33:35;101540.41;;;7.51;80.66
61786;BME280;47692;53.714;11.372;2023-05-09T03:36:00;101537.78;;;7.51;80.48
61786;BME280;47692;53.714;11.372;2023-05-09T03:38:26;101536.09;;;7.50;80.73
61786;BME280;47692;53.714;11.372;2023-05-09T03:40:54;101536.94;;;7.52;80.71
61786;BME280;47692;53.714;11.372;2023-05-09T03:43:19;101538.69;;;7.50;80.53
61786;BME280;47692;53.714;11.372;2023-05-09T03:45:44;101543.00;;;7.51;80.55
61786;BME280;47692;53.714;11.372;2023-05-09T03:48:10;101539.53;;;7.52;80.61
61786;BME280;47692;53.714;11.372;2023-05-09T03:50:36;101545.63;;;7.54;80.08
61786;BME280;47692;53.714;11.372;2023-05-09T03:53:01;101542.13;;;7.53;80.34
61786;BME280;47692;53.714;11.372;2023-05-09T03:55:27;101541.28;;;7.53;80.34
61786;BME280;47692;53.714;11.372;2023-05-09T03:57:53;101544.75;;;7.55;80.31
61786;BME280;47692;53.714;11.372;2023-05-09T04:00:18;101552.53;;;7.59;79.96
61786;BME280;47692;53.714;11.372;2023-05-09T04:02:44;101549.13;;;7.64;80.11
61786;BME280;47692;53.714;11.372;2023-05-09T04:05:09;101548.25;;;7.66;79.49
61786;BME280;47692;53.714;11.372;2023-05-09T04:07:35;101547.41;;;7.67;79.25
61786;BME280;47692;53.714;11.372;2023-05-09T04:10:00;101550.00;;;7.73;79.16
61786;BME280;47692;53.714;11.372;2023-05-09T04:12:25;101547.41;;;7.78;78.84
61786;BME280;47692;53.714;11.372;2023-05-09T04:14:51;101544.81;;;7.76;78.89
61786;BME280;47692;53.714;11.372;2023-05-09T04:17:16;101547.41;;;7.78;78.90
61786;BME280;47692;53.714;11.372;2023-05-09T04:19:42;101544.78;;;7.78;79.58
61786;BME280;47692;53.714;11.372;2023-05-09T04:22:07;101545.69;;;7.80;79.25
61786;BME280;47692;53.714;11.372;2023-05-09T04:24:32;101550.00;;;7.83;79.13
61786;BME280;47692;53.714;11.372;2023-05-09T04:26:58;101543.94;;;7.87;78.86
61786;BME280;47692;53.714;11.372;2023-05-09T04:29:23;101541.38;;;7.90;79.02
61786;BME280;47692;53.714;11.372;2023-05-09T04:31:49;101541.34;;;7.93;78.96
61786;BME280;47692;53.714;11.372;2023-05-09T04:34:14;101536.16;;;7.96;78.80
61786;BME280;47692;53.714;11.372;2023-05-09T04:36:39;101541.38;;;7.99;78.79
61786;BME280;47692;53.714;11.372;2023-05-09T04:39:05;101536.19;;;8.01;78.92
61786;BME280;47692;53.714;11.372;2023-05-09T04:41:30;101525.75;;;8.05;78.93
61786;BME280;47692;53.714;11.372;2023-05-09T04:43:56;101526.63;;;8.09;78.19
61786;BME280;47692;53.714;11.372;2023-05-09T04:46:21;101528.38;;;8.16;78.21
61786;BME280;47692;53.714;11.372;2023-05-09T04:48:47;101536.19;;;8.21;78.56
61786;BME280;47692;53.714;11.372;2023-05-09T04:51:12;101527.53;;;8.28;78.37
61786;BME280;47692;53.714;11.372;2023-05-09T04:53:37;101532.72;;;8.34;77.85
61786;BME280;47692;53.714;11.372;2023-05-09T04:56:04;101525.78;;;8.39;77.67
61786;BME280;47692;53.714;11.372;2023-05-09T04:58:29;101535.31;;;8.44;77.80
61786;BME280;47692;53.714;11.372;2023-05-09T05:00:55;101518.84;;;8.48;76.85
61786;BME280;47692;53.714;11.372;2023-05-09T05:03:20;101518.84;;;8.54;76.92
61786;BME280;47692;53.714;11.372;2023-05-09T05:05:45;101522.31;;;8.59;76.99
61786;BME280;47692;53.714;11.372;2023-05-09T05:08:11;101520.56;;;8.64;77.01
61786;BME280;47692;53.714;11.372;2023-05-09T05:10:36;101519.69;;;8.70;75.71
61786;BME280;47692;53.714;11.372;2023-05-09T05:13:01;101511.00;;;8.74;75.57
61786;BME280;47692;53.714;11.372;2023-05-09T05:15:27;101510.13;;;8.80;75.22
61786;BME280;47692;53.714;11.372;2023-05-09T05:17:52;101509.22;;;8.84;74.97
61786;BME280;47692;53.714;11.372;2023-05-09T05:20:17;101508.34;;;8.91;75.34
61786;BME280;47692;53.714;11.372;2023-05-09T05:22:43;101500.50;;;8.99;75.20
61786;BME280;47692;53.714;11.372;2023-05-09T05:25:08;101495.25;;;9.08;74.34
61786;BME280;47692;53.714;11.372;2023-05-09T05:27:34;101496.13;;;9.12;73.82
61786;BME280;47692;53.714;11.372;2023-05-09T05:29:59;101492.63;;;9.16;73.52
61786;BME280;47692;53.714;11.372;2023-05-09T05:32:30;101490.00;;;9.20;74.14
61786;BME280;47692;53.714;11.372;2023-05-09T05:34:56;101487.34;;;9.28;74.23
61786;BME280;47692;53.714;11.372;2023-05-09T05:37:21;101489.06;;;9.35;74.11
61786;BME280;47692;53.714;11.372;2023-05-09T05:39:47;101479.47;;;9.41;73.64
61786;BME280;47692;53.714;11.372;2023-05-09T05:42:12;101491.63;;;9.46;73.19
61786;BME280;47692;53.714;11.372;2023-05-09T05:44:37;101482.00;;;9.53;72.63
61786;BME280;47692;53.714;11.372;2023-05-09T05:47:02;101480.22;;;9.58;71.95
61786;BME280;47692;53.714;11.372;2023-05-09T05:49:28;101466.31;;;9.62;72.26
61786;BME280;47692;53.714;11.372;2023-05-09T05:51:53;101466.28;;;9.65;71.86
61786;BME280;47692;53.714;11.372;2023-05-09T05:54:18;101467.13;;;9.69;71.59
61786;BME280;47692;53.714;11.372;2023-05-09T05:56:44;101468.81;;;9.76;71.73
61786;BME280;47692;53.714;11.372;2023-05-09T05:59:09;101453.13;;;9.82;72.29
61786;BME280;47692;53.714;11.372;2023-05-09T06:01:34;101460.00;;;9.93;72.02
61786;BME280;47692;53.714;11.372;2023-05-09T06:04:00;101473.84;;;10.01;70.95
61786;BME280;47692;53.714;11.372;2023-05-09T06:06:25;101461.56;;;10.14;71.22
61786;BME280;47692;53.714;11.372;2023-05-09T06:08:51;101464.09;;;10.23;70.68
61786;BME280;47692;53.714;11.372;2023-05-09T06:11:17;101458.81;;;10.29;69.83
61786;BME280;47692;53.714;11.372;2023-05-09T06:13:42;101443.06;;;10.35;70.22
61786;BME280;47692;53.714;11.372;2023-05-09T06:16:08;101450.00;;;10.43;69.69
61786;BME280;47692;53.714;11.372;2023-05-09T06:18:34;101446.50;;;10.44;69.96
61786;BME280;47692;53.714;11.372;2023-05-09T06:21:02;101435.22;;;10.43;68.70
61786;BME280;47692;53.714;11.372;2023-05-09T06:23:28;101437.72;;;10.51;70.00
61786;BME280;47692;53.714;11.372;2023-05-09T06:25:53;101428.97;;;10.55;68.41
61786;BME280;47692;53.714;11.372;2023-05-09T06:28:18;101434.13;;;10.61;68.77
61786;BME280;47692;53.714;11.372;2023-05-09T06:30:44;101428.81;;;10.67;68.81
61786;BME280;47692;53.714;11.372;2023-05-09T06:33:09;101428.69;;;10.80;68.95
61786;BME280;47692;53.714;11.372;2023-05-09T06:35:35;101428.59;;;10.86;67.95
61786;BME280;47692;53.714;11.372;2023-05-09T06:38:00;101429.41;;;10.93;68.22
61786;BME280;47692;53.714;11.372;2023-05-09T06:40:25;101424.97;;;10.99;67.16
61786;BME280;47692;53.714;11.372;2023-05-09T06:42:51;101416.09;;;11.10;67.66
61786;BME280;47692;53.714;11.372;2023-05-09T06:45:16;101414.16;;;11.24;67.88
61786;BME280;47692;53.714;11.372;2023-05-09T06:47:41;101414.81;;;11.40;67.51
61786;BME280;47692;53.714;11.372;2023-05-09T06:50:07;101419.03;;;11.49;65.64
61786;BME280;47692;53.714;11.372;2023-05-09T06:52:32;101414.59;;;11.54;65.76
61786;BME280;47692;53.714;11.372;2023-05-09T06:54:58;101408.41;;;11.58;65.37
61786;BME280;47692;53.714;11.372;2023-05-09T06:57:23;101410.00;;;11.69;65.19
61786;BME280;47692;53.714;11.372;2023-05-09T06:59:49;101411.50;;;11.82;64.95
61786;BME280;47692;53.714;11.372;2023-05-09T07:02:14;101404.34;;;11.96;66.44
61786;BME280;47692;53.714;11.372;2023-05-09T07:04:40;101403.22;;;12.10;65.26
61786;BME280;47692;53.714;11.372;2023-05-09T07:07:05;101402.97;;;12.24;65.70
61786;BME280;47692;53.714;11.372;2023-05-09T07:09:31;101392.34;;;12.32;64.75
61786;BME280;47692;53.714;11.372;2023-05-09T07:11:58;101402.75;;;12.36;65.35
61786;BME280;47692;53.714;11.372;2023-05-09T07:14:24;101393.00;;;12.43;64.16
61786;BME280;47692;53.714;11.372;2023-05-09T07:16:49;101398.09;;;12.49;63.99
61786;BME280;47692;53.714;11.372;2023-05-09T07:19:15;101389.19;;;12.59;63.63
61786;BME280;47692;53.714;11.372;2023-05-09T07:21:40;101384.63;;;12.68;62.87
61786;BME280;47692;53.714;11.372;2023-05-09T07:24:05;101383.88;;;12.63;62.14
61786;BME280;47692;53.714;11.372;2023-05-09T07:26:31;101382.03;;;12.68;62.98
61786;BME280;47692;53.714;11.372;2023-05-09T07:28:56;101369.66;;;12.74;62.44
61786;BME280;47692;53.714;11.372;2023-05-09T07:31:21;101372.97;;;12.84;63.13
61786;BME280;47692;53.714;11.372;2023-05-09T07:33:47;101370.97;;;12.96;62.29
61786;BME280;47692;53.714;11.372;2023-05-09T07:36:12;101370.75;;;13.05;60.82
61786;BME280;47692;53.714;11.372;2023-05-09T07:38:40;101365.34;;;13.11;62.04
61786;BME280;47692;53.714;11.372;2023-05-09T07:41:05;101364.22;;;13.23;62.14
61786;BME280;47692;53.714;11.372;2023-05-09T07:43:31;101359.69;;;13.30;61.13
61786;BME280;47692;53.714;11.372;2023-05-09T07:45:56;101347.41;;;13.32;60.72
61786;BME280;47692;53.714;11.372;2023-05-09T07:48:21;101350.78;;;13.37;60.99
61786;BME280;47692;53.714;11.372;2023-05-09T07:50:47;101347.16;;;13.44;61.03
61786;BME280;47692;53.714;11.372;2023-05-09T07:53:12;101349.53;;;13.53;61.10
61786;BME280;47692;53.714;11.372;2023-05-09T07:55:37;101348.16;;;13.73;62.69
61786;BME280;47692;53.714;11.372;2023-05-09T07:58:03;101341.66;;;13.88;61.05
61786;BME280;47692;53.714;11.372;2023-05-09T08:00:28;101340.78;;;13.87;59.73
61786;BME280;47692;53.714;11.372;2023-05-09T08:02:53;101338.16;;;13.87;59.60
61786;BME280;47692;53.714;11.372;2023-05-09T08:05:19;101336.28;;;13.91;60.93
61786;BME280;47692;53.714;11.372;2023-05-09T08:07:44;101333.50;;;13.99;60.25
61786;BME280;47692;53.714;11.372;2023-05-09T08:10:10;101334.06;;;14.10;60.13
61786;BME280;47692;53.714;11.372;2023-05-09T08:12:35;101327.81;;;14.14;59.83
61786;BME280;47692;53.714;11.372;2023-05-09T08:15:01;101324.00;;;14.25;60.21
61786;BME280;47692;53.714;11.372;2023-05-09T08:17:26;101327.09;;;14.39;59.03
61786;BME280;47692;53.714;11.372;2023-05-09T08:19:51;101314.81;;;14.41;58.52
61786;BME280;47692;53.714;11.372;2023-05-09T08:22:17;101318.16;;;14.46;58.42
61786;BME280;47692;53.714;11.372;2023-05-09T08:24:43;101310.88;;;14.54;58.58
61786;BME280;47692;53.714;11.372;2023-05-09T08:27:09;101315.00;;;14.65;57.55
61786;BME280;47692;53.714;11.372;2023-05-09T08:29:37;101306.94;;;14.71;58.34
61786;BME280;47692;53.714;11.372;2023-05-09T08:32:03;101308.16;;;14.88;58.48
61786;BME280;47692;53.714;11.372;2023-05-09T08:34:28;101313.16;;;14.97;58.36
61786;BME280;47692;53.714;11.372;2023-05-09T08:36:55;101307.47;;;15.09;59.06
61786;BME280;47692;53.714;11.372;2023-05-09T08:39:21;101307.19;;;15.18;56.74
61786;BME280;47692;53.714;11.372;2023-05-09T08:41:46;101317.78;;;15.15;56.62
61786;BME280;47692;53.714;11.372;2023-05-09T08:44:12;101315.97;;;15.17;57.87
61786;BME280;47692;53.714;11.372;2023-05-09T08:46:39;101312.13;;;15.28;57.22
61786;BME280;47692;53.714;11.372;2023-05-09T08:49:07;101304.16;;;15.31;56.44
61786;BME280;47692;53.714;11.372;2023-05-09T08:51:34;101310.03;;;15.39;57.50
61786;BME280;47692;53.714;11.372;2023-05-09T08:54:00;101306.16;;;15.49;57.21
61786;BME280;47692;53.714;11.372;2023-05-09T08:56:25;101304.50;;;15.72;58.04
61786;BME280;47692;53.714;11.372;2023-05-09T08:58:52;101311.78;;;15.91;58.21
61786;BME280;47692;53.714;11.372;2023-05-09T09:01:19;101300.06;;;15.99;56.53
61786;BME280;47692;53.714;11.372;2023-05-09T09:03:45;101296.88;;;16.15;56.86
61786;BME280;47692;53.714;11.372;2023-05-09T09:06:14;101303.38;;;16.30;55.88
61786;BME280;47692;53.714;11.372;2023-05-09T09:08:41;101289.00;;;16.37;53.99
61786;BME280;47692;53.714;11.372;2023-05-09T09:11:11;101282.72;;;16.41;52.62
61786;BME280;47692;53.714;11.372;2023-05-09T09:13:39;101279.44;;;16.35;51.84
61786;BME280;47692;53.714;11.372;2023-05-09T09:16:07;101270.53;;;16.39;52.43
61786;BME280;47692;53.714;11.372;2023-05-09T09:18:34;101280.63;;;16.50;53.13
61786;BME280;47692;53.714;11.372;2023-05-09T09:21:05;101283.69;;;16.62;53.38
61786;BME280;47692;53.714;11.372;2023-05-09T09:23:31;101277.41;;;16.65;52.67
61786;BME280;47692;53.714;11.372;2023-05-09T09:26:00;101273.00;;;16.66;52.80
61786;BME280;47692;53.714;11.372;2023-05-09T09:28:26;101271.66;;;16.77;52.89
61786;BME280;47692;53.714;11.372;2023-05-09T09:30:52;101268.97;;;16.79;51.38
61786;BME280;47692;53.714;11.372;2023-05-09T09:33:19;101272.88;;;16.91;52.95
61786;BME280;47692;53.714;11.372;2023-05-09T09:35:49;101260.25;;;16.99;52.72
61786;BME280;47692;53.714;11.372;2023-05-09T09:38:19;101268.47;;;17.14;52.38
61786;BME280;47692;53.714;11.372;2023-05-09T09:40:52;101270.13;;;17.16;51.17
61786;BME280;47692;53.714;11.372;2023-05-09T09:43:18;101264.78;;;17.18;51.74
61786;BME280;47692;53.714;11.372;2023-05-09T09:45:47;101253.97;;;17.24;52.00
61786;BME280;47692;53.714;11.372;2023-05-09T09:48:13;101249.50;;;17.26;51.59
61786;BME280;47692;53.714;11.372;2023-05-09T09:50:38;101242.75;;;17.19;50.98
61786;BME280;47692;53.714;11.372;2023-05-09T09:53:03;101242.47;;;17.04;50.93
61786;BME280;47692;53.714;11.372;2023-05-09T09:55:30;101241.19;;;17.15;51.90
61786;BME280;47692;53.714;11.372;2023-05-09T09:57:55;101234.97;;;17.16;51.35
61786;BME280;47692;53.714;11.372;2023-05-09T10:00:25;101227.72;;;17.21;50.15
61786;BME280;47692;53.714;11.372;2023-05-09T10:02:54;101220.41;;;17.27;49.32
61786;BME280;47692;53.714;11.372;2023-05-09T10:05:21;101232.34;;;17.36;49.90
61786;BME280;47692;53.714;11.372;2023-05-09T10:08:01;101224.88;;;17.46;47.94
61786;BME280;47692;53.714;11.372;2023-05-09T10:10:29;101219.41;;;17.51;47.94
61786;BME280;47692;53.714;11.372;2023-05-09T10:13:02;101220.97;;;17.55;47.39
61786;BME280;47692;53.714;11.372;2023-05-09T10:15:30;101207.41;;;17.43;46.91
61786;BME280;47692;53.714;11.372;2023-05-09T10:17:57;101201.56;;;17.56;48.19
61786;BME280;47692;53.714;11.372;2023-05-09T10:20:23;101205.84;;;17.58;47.49
61786;BME280;47692;53.714;11.372;2023-05-09T10:22:52;101200.50;;;17.60;47.40
61786;BME280;47692;53.714;11.372;2023-05-09T10:25:20;101190.03;;;17.77;47.81
61786;BME280;47692;53.714;11.372;2023-05-09T10:27:47;101224.72;;;17.70;46.36
61786;BME280;47692;53.714;11.372;2023-05-09T10:30:16;101195.31;;;17.58;46.63
61786;BME280;47692;53.714;11.372;2023-05-09T10:32:53;101189.03;;;17.61;46.92
61786;BME280;47692;53.714;11.372;2023-05-09T10:35:27;101195.19;;;17.81;48.08
61786;BME280;47692;53.714;11.372;2023-05-09T10:37:55;101194.22;;;18.02;47.28
61786;BME280;47692;53.714;11.372;2023-05-09T10:40:23;101185.38;;;18.03;46.44
61786;BME280;47692;53.714;11.372;2023-05-09T10:42:49;101187.63;;;17.92;45.80
61786;BME280;47692;53.714;11.372;2023-05-09T10:45:14;101182.44;;;18.09;46.37
61786;BME280;47692;53.714;11.372;2023-05-09T10:47:41;101177.25;;;18.08;46.32
61786;BME280;47692;53.714;11.372;2023-05-09T10:50:08;101179.50;;;18.16;45.59
61786;BME280;47692;53.714;11.372;2023-05-09T10:55:36;101169.78;;;18.35;44.22
61786;BME280;47692;53.714;11.372;2023-05-09T10:58:17;101158.50;;;18.32;45.45
61786;BME280;47692;53.714;11.372;2023-05-09T11:00:44;101165.25;;;18.37;45.70
61786;BME280;47692;53.714;11.372;2023-05-09T11:03:10;101146.63;;;18.40;44.87
61786;BME280;47692;53.714;11.372;2023-05-09T11:05:39;101145.50;;;18.64;46.74
61786;BME280;47692;53.714;11.372;2023-05-09T11:10:42;101132.66;;;18.73;42.76
61786;BME280;47692;53.714;11.372;2023-05-09T11:13:08;101135.94;;;18.61;44.24
61786;BME280;47692;53.714;11.372;2023-05-09T11:15:35;101129.44;;;18.49;43.62
61786;BME280;47692;53.714;11.372;2023-05-09T11:18:08;101121.75;;;18.62;44.84
61786;BME280;47692;53.714;11.372;2023-05-09T11:20:41;101119.19;;;18.78;44.95
61786;BME280;47692;53.714;11.372;2023-05-09T11:23:08;101112.03;;;18.80;44.26
61786;BME280;47692;53.714;11.372;2023-05-09T11:25:37;101117.59;;;18.93;45.62
61786;BME280;47692;53.714;11.372;2023-05-09T11:28:03;101110.03;;;19.03;42.98
61786;BME280;47692;53.714;11.372;2023-05-09T11:30:42;101111.34;;;19.12;43.65
61786;BME280;47692;53.714;11.372;2023-05-09T11:33:22;101107.38;;;19.36;43.53
61786;BME280;47692;53.714;11.372;2023-05-09T11:39:04;101094.69;;;19.43;41.84
61786;BME280;47692;53.714;11.372;2023-05-09T11:41:35;101089.78;;;19.35;41.36
61786;BME280;47692;53.714;11.372;2023-05-09T11:44:01;101085.38;;;19.02;41.05
61786;BME280;47692;53.714;11.372;2023-05-09T11:46:26;101083.47;;;19.04;40.58
61786;BME280;47692;53.714;11.372;2023-05-09T11:48:52;101073.97;;;19.18;42.18
61786;BME280;47692;53.714;11.372;2023-05-09T11:51:18;101062.72;;;19.30;39.44
61786;BME280;47692;53.714;11.372;2023-05-09T11:53:44;101054.50;;;19.19;38.12
61786;BME280;47692;53.714;11.372;2023-05-09T11:56:12;101064.44;;;19.31;40.83
61786;BME280;47692;53.714;11.372;2023-05-09T11:58:38;101055.81;;;19.44;37.87
61786;BME280;47692;53.714;11.372;2023-05-09T12:01:04;101057.34;;;19.48;38.05
61786;BME280;47692;53.714;11.372;2023-05-09T12:03:29;101050.69;;;19.57;37.30
61786;BME280;47692;53.714;11.372;2023-05-09T12:05:54;101041.56;;;19.62;38.31
61786;BME280;47692;53.714;11.372;2023-05-09T12:08:21;101052.16;;;19.62;39.14
61786;BME280;47692;53.714;11.372;2023-05-09T12:10:47;101048.56;;;19.95;41.02
61786;BME280;47692;53.714;11.372;2023-05-09T12:13:13;101044.13;;;20.12;40.88
61786;BME280;47692;53.714;11.372;2023-05-09T12:15:39;101035.25;;;20.27;40.89
61786;BME280;47692;53.714;11.372;2023-05-09T12:18:06;101029.06;;;20.43;40.12
61786;BME280;47692;53.714;11.372;2023-05-09T12:20:43;101014.81;;;20.29;38.92
61786;BME280;47692;53.714;11.372;2023-05-09T12:23:11;101014.78;;;19.99;38.89
61786;BME280;47692;53.714;11.372;2023-05-09T12:25:36;101015.47;;;20.02;38.71
61786;BME280;47692;53.714;11.372;2023-05-09T12:28:02;101010.53;;;19.96;37.75
61786;BME280;47692;53.714;11.372;2023-05-09T12:30:28;100999.13;;;20.10;38.12
61786;BME280;47692;53.714;11.372;2023-05-09T12:32:54;101003.22;;;20.16;37.46
61786;BME280;47692;53.714;11.372;2023-05-09T12:35:20;100998.13;;;20.27;37.92
61786;BME280;47692;53.714;11.372;2023-05-09T12:38:14;100988.22;;;20.31;38.11
61786;BME280;47692;53.714;11.372;2023-05-09T12:40:47;100990.44;;;20.53;38.69
61786;BME280;47692;53.714;11.372;2023-05-09T12:43:12;100986.72;;;20.86;39.24
61786;BME280;47692;53.714;11.372;2023-05-09T12:45:38;100984.97;;;21.14;40.19
61786;BME280;47692;53.714;11.372;2023-05-09T12:48:04;100983.97;;;21.29;40.49
61786;BME280;47692;53.714;11.372;2023-05-09T12:50:31;100971.28;;;21.35;38.39
61786;BME280;47692;53.714;11.372;2023-05-09T12:53:00;100973.84;;;21.36;38.57
61786;BME280;47692;53.714;11.372;2023-05-09T12:55:25;100971.84;;;21.40;37.95
61786;BME280;47692;53.714;11.372;2023-05-09T12:58:02;100968.44;;;21.23;37.86
61786;BME280;47692;53.714;11.372;2023-05-09T13:00:28;100961.50;;;21.35;36.76